sensor_id;sensor_type;location;lat;lon;timestamp;temperature;humidity
49042;DHT22;34859;51.608;11.462;2023-03-01T00:01:04;-3.70;99.90
49042;DHT22;34859;51.608;11.462;2023-03-01T00:03:32;-3.80;99.90
49042;DHT22;34859;51.608;11.462;2023-03-01T00:05:58;-3.80;99.90
49042;DHT22;34859;51.608;11.462;2023-03-01T00:08:25;-3.80;99.90
49042;DHT22;34859;51.608;11.462;2023-03-01T00:13:33;-3.90;99.90
49042;DHT22;34859;51.608;11.462;2023-03-01T00:16:07;-3.90;99.90
49042;DHT22;34859;51.608;11.462;2023-03-01T00:18:34;-3.90;99.90
49042;DHT22;34859;51.608;11.462;2023-03-01T00:21:00;-3.80;99.90
49042;DHT22;34859;51.608;11.462;2023-03-01T00:23:27;-3.80;99.90
49042;DHT22;34859;51.608;11.462;2023-03-01T00:25:54;-3.90;99.90
49042;DHT22;34859;51.608;11.462;2023-03-01T00:28:20;-3.90;99.90
49042;DHT22;34859;51.608;11.462;2023-03-01T00:30:47;-3.90;99.90
49042;DHT22;34859;51.608;11.462;2023-03-01T00:33:14;-3.90;99.90
49042;DHT22;34859;51.608;11.462;2023-03-01T00:35:40;-3.90;99.90
49042;DHT22;34859;51.608;11.462;2023-03-01T00:38:07;-3.90;99.90
49042;DHT22;34859;51.608;11.462;2023-03-01T00:40:34;-3.90;99.90
49042;DHT22;34859;51.608;11.462;2023-03-01T00:43:01;-3.90;99.90
49042;DHT22;34859;51.608;11.462;2023-03-01T00:45:28;-3.90;99.90
49042;DHT22;34859;51.608;11.462;2023-03-01T00:47:56;-4.00;99.90
49042;DHT22;34859;51.608;11.462;2023-03-01T00:50:23;-4.00;99.90
49042;DHT22;34859;51.608;11.462;2023-03-01T00:52:53;-4.00;99.90
49042;DHT22;34859;51.608;11.462;2023-03-01T00:55:20;-4.10;99.90
49042;DHT22;34859;51.608;11.462;2023-03-01T00:57:47;-4.10;99.90
49042;DHT22;34859;51.608;11.462;2023-03-01T01:00:14;-4.10;99.90
49042;DHT22;34859;51.608;11.462;2023-03-01T01:02:40;-4.20;99.90
49042;DHT22;34859;51.608;11.462;2023-03-01T01:05:07;-4.20;99.90
49042;DHT22;34859;51.608;11.462;2023-03-01T01:07:33;-4.20;99.90
49042;DHT22;34859;51.608;11.462;2023-03-01T01:10:00;-4.10;99.90
49042;DHT22;34859;51.608;11.462;2023-03-01T01:12:31;-4.10;99.90
49042;DHT22;34859;51.608;11.462;2023-03-01T01:14:57;-4.20;99.90
49042;DHT22;34859;51.608;11.462;2023-03-01T01:17:24;-4.20;99.90
49042;DHT22;34859;51.608;11.462;2023-03-01T01:19:51;-4.20;99.90
49042;DHT22;34859;51.608;11.462;2023-03-01T01:22:17;-4.30;99.90
49042;DHT22;34859;51.608;11.462;2023-03-01T01:24:44;-4.30;99.90
49042;DHT22;34859;51.608;11.462;2023-03-01T01:27:10;-4.30;99.90
49042;DHT22;34859;51.608;11.462;2023-03-01T01:29:37;-4.30;99.90
49042;DHT22;34859;51.608;11.462;2023-03-01T01:32:04;-4.30;99.90
49042;DHT22;34859;51.608;11.462;2023-03-01T01:34:30;-4.30;99.90
49042;DHT22;34859;51.608;11.462;2023-03-01T01:37:00;-4.30;99.90
49042;DHT22;34859;51.608;11.462;2023-03-01T01:39:28;-4.30;99.90
49042;DHT22;34859;51.608;11.462;2023-03-01T01:42:01;-4.20;99.90
49042;DHT22;34859;51.608;11.462;2023-03-01T01:44:28;-4.30;99.90
49042;DHT22;34859;51.608;11.462;2023-03-01T01:46:58;-4.30;99.90
49042;DHT22;34859;51.608;11.462;2023-03-01T01:49:29;-4.20;99.90
49042;DHT22;34859;51.608;11.462;2023-03-01T01:52:00;-4.20;99.90
49042;DHT22;34859;51.608;11.462;2023-03-01T01:54:30;-4.20;99.90
49042;DHT22;34859;51.608;11.462;2023-03-01T01:57:00;-4.20;99.90
49042;DHT22;34859;51.608;11.462;2023-03-01T01:59:28;-4.20;99.90
49042;DHT22;34859;51.608;11.462;2023-03-01T02:01:54;-4.20;99.90
49042;DHT22;34859;51.608;11.462;2023-03-01T02:04:21;-4.30;99.90
49042;DHT22;34859;51.608;11.462;2023-03-01T02:07:21;-4.30;99.90
49042;DHT22;34859;51.608;11.462;2023-03-01T02:09:41;-4.30;99.90
49042;DHT22;34859;51.608;11.462;2023-03-01T02:12:07;-4.30;99.90
49042;DHT22;34859;51.608;11.462;2023-03-01T02:14:34;-4.30;99.90
49042;DHT22;34859;51.608;11.462;2023-03-01T02:17:01;-4.20;99.90
49042;DHT22;34859;51.608;11.462;2023-03-01T02:22:07;-4.30;99.90
49042;DHT22;34859;51.608;11.462;2023-03-01T02:27:21;-4.30;99.90
49042;DHT22;34859;51.608;11.462;2023-03-01T02:29:50;-4.30;99.90
49042;DHT22;34859;51.608;11.462;2023-03-01T02:32:23;-4.30;99.90
49042;DHT22;34859;51.608;11.462;2023-03-01T02:34:54;-4.30;99.90
49042;DHT22;34859;51.608;11.462;2023-03-01T02:37:21;-4.40;99.90
49042;DHT22;34859;51.608;11.462;2023-03-01T02:39:52;-4.30;99.90
49042;DHT22;34859;51.608;11.462;2023-03-01T02:42:23;-4.30;99.90
49042;DHT22;34859;51.608;11.462;2023-03-01T02:44:50;-4.30;99.90
49042;DHT22;34859;51.608;11.462;2023-03-01T02:47:17;-4.30;99.90
49042;DHT22;34859;51.608;11.462;2023-03-01T02:49:43;-4.30;99.90
49042;DHT22;34859;51.608;11.462;2023-03-01T02:54:57;-4.40;99.90
49042;DHT22;34859;51.608;11.462;2023-03-01T02:57:25;-4.40;99.90
49042;DHT22;34859;51.608;11.462;2023-03-01T02:59:54;-4.40;99.90
49042;DHT22;34859;51.608;11.462;2023-03-01T03:02:21;-4.40;99.90
49042;DHT22;34859;51.608;11.462;2023-03-01T03:05:02;-4.50;99.90
49042;DHT22;34859;51.608;11.462;2023-03-01T03:07:29;-4.50;99.90
49042;DHT22;34859;51.608;11.462;2023-03-01T03:09:56;-4.50;99.90
49042;DHT22;34859;51.608;11.462;2023-03-01T03:12:23;-4.60;99.90
49042;DHT22;34859;51.608;11.462;2023-03-01T03:14:49;-4.60;99.90
49042;DHT22;34859;51.608;11.462;2023-03-01T03:17:16;-4.60;99.90
49042;DHT22;34859;51.608;11.462;2023-03-01T03:19:43;-4.70;99.90
49042;DHT22;34859;51.608;11.462;2023-03-01T03:22:31;-4.70;99.90
49042;DHT22;34859;51.608;11.462;2023-03-01T03:24:57;-4.70;99.90
49042;DHT22;34859;51.608;11.462;2023-03-01T03:27:24;-4.70;99.90
49042;DHT22;34859;51.608;11.462;2023-03-01T03:29:51;-4.70;99.90
49042;DHT22;34859;51.608;11.462;2023-03-01T03:32:17;-4.80;99.90
49042;DHT22;34859;51.608;11.462;2023-03-01T03:34:44;-4.70;99.90
49042;DHT22;34859;51.608;11.462;2023-03-01T03:37:10;-4.70;99.90
49042;DHT22;34859;51.608;11.462;2023-03-01T03:39:57;-4.80;99.90
49042;DHT22;34859;51.608;11.462;2023-03-01T03:42:23;-4.70;99.90
49042;DHT22;34859;51.608;11.462;2023-03-01T03:44:50;-4.80;99.90
49042;DHT22;34859;51.608;11.462;2023-03-01T03:47:19;-4.80;99.90
49042;DHT22;34859;51.608;11.462;2023-03-01T03:49:46;-4.80;99.90
49042;DHT22;34859;51.608;11.462;2023-03-01T03:52:13;-4.80;99.90
49042;DHT22;34859;51.608;11.462;2023-03-01T03:54:40;-4.80;99.90
49042;DHT22;34859;51.608;11.462;2023-03-01T03:57:07;-4.80;99.90
49042;DHT22;34859;51.608;11.462;2023-03-01T03:59:33;-4.80;99.90
49042;DHT22;34859;51.608;11.462;2023-03-01T04:02:18;-4.90;99.90
49042;DHT22;34859;51.608;11.462;2023-03-01T04:04:50;-4.90;99.90
49042;DHT22;34859;51.608;11.462;2023-03-01T04:07:20;-4.90;99.90
49042;DHT22;34859;51.608;11.462;2023-03-01T04:09:46;-4.90;99.90
49042;DHT22;34859;51.608;11.462;2023-03-01T04:12:36;-4.90;99.90
49042;DHT22;34859;51.608;11.462;2023-03-01T04:15:22;-4.90;99.90
49042;DHT22;34859;51.608;11.462;2023-03-01T04:18:11;-5.00;99.90
49042;DHT22;34859;51.608;11.462;2023-03-01T04:20:58;-5.00;99.90
49042;DHT22;34859;51.608;11.462;2023-03-01T04:23:24;-5.00;99.90
49042;DHT22;34859;51.608;11.462;2023-03-01T04:25:52;-5.10;99.90
49042;DHT22;34859;51.608;11.462;2023-03-01T04:28:21;-5.10;99.90
49042;DHT22;34859;51.608;11.462;2023-03-01T04:30:50;-5.00;99.90
49042;DHT22;34859;51.608;11.462;2023-03-01T04:33:19;-5.00;99.90
49042;DHT22;34859;51.608;11.462;2023-03-01T04:35:47;-5.10;99.90
49042;DHT22;34859;51.608;11.462;2023-03-01T04:38:15;-5.10;99.90
49042;DHT22;34859;51.608;11.462;2023-03-01T04:40:42;-5.10;99.90
49042;DHT22;34859;51.608;11.462;2023-03-01T04:43:09;-5.10;99.90
49042;DHT22;34859;51.608;11.462;2023-03-01T04:45:36;-5.10;99.90
49042;DHT22;34859;51.608;11.462;2023-03-01T04:48:03;-5.10;99.90
49042;DHT22;34859;51.608;11.462;2023-03-01T04:50:30;-5.10;99.90
49042;DHT22;34859;51.608;11.462;2023-03-01T04:52:56;-5.10;99.90
49042;DHT22;34859;51.608;11.462;2023-03-01T04:55:25;-5.10;99.90
49042;DHT22;34859;51.608;11.462;2023-03-01T04:57:51;-5.10;99.90
49042;DHT22;34859;51.608;11.462;2023-03-01T05:00:18;-5.10;99.90
49042;DHT22;34859;51.608;11.462;2023-03-01T05:02:52;-5.10;99.90
49042;DHT22;34859;51.608;11.462;2023-03-01T05:07:51;-5.20;99.90
49042;DHT22;34859;51.608;11.462;2023-03-01T05:10:17;-5.10;99.90
49042;DHT22;34859;51.608;11.462;2023-03-01T05:12:44;-5.20;99.90
49042;DHT22;34859;51.608;11.462;2023-03-01T05:15:12;-5.20;99.90
49042;DHT22;34859;51.608;11.462;2023-03-01T05:17:38;-5.20;99.90
49042;DHT22;34859;51.608;11.462;2023-03-01T05:20:05;-5.20;99.90
49042;DHT22;34859;51.608;11.462;2023-03-01T05:22:34;-5.30;99.90
49042;DHT22;34859;51.608;11.462;2023-03-01T05:25:01;-5.20;99.90
49042;DHT22;34859;51.608;11.462;2023-03-01T05:27:28;-5.30;99.90
49042;DHT22;34859;51.608;11.462;2023-03-01T05:29:55;-5.30;99.90
49042;DHT22;34859;51.608;11.462;2023-03-01T05:32:21;-5.40;99.90
49042;DHT22;34859;51.608;11.462;2023-03-01T05:34:48;-5.40;99.90
49042;DHT22;34859;51.608;11.462;2023-03-01T05:37:34;-5.40;99.90
49042;DHT22;34859;51.608;11.462;2023-03-01T05:40:01;-5.50;99.90
49042;DHT22;34859;51.608;11.462;2023-03-01T05:42:29;-5.40;99.90
49042;DHT22;34859;51.608;11.462;2023-03-01T05:44:56;-5.40;99.90
49042;DHT22;34859;51.608;11.462;2023-03-01T05:47:23;-5.40;99.90
49042;DHT22;34859;51.608;11.462;2023-03-01T05:49:49;-5.40;99.90
49042;DHT22;34859;51.608;11.462;2023-03-01T05:52:17;-5.40;99.90
49042;DHT22;34859;51.608;11.462;2023-03-01T05:54:43;-5.40;99.90
49042;DHT22;34859;51.608;11.462;2023-03-01T05:57:10;-5.40;99.90
49042;DHT22;34859;51.608;11.462;2023-03-01T05:59:37;-5.40;99.90
49042;DHT22;34859;51.608;11.462;2023-03-01T06:02:03;-5.40;99.90
49042;DHT22;34859;51.608;11.462;2023-03-01T06:04:30;-5.40;99.90
49042;DHT22;34859;51.608;11.462;2023-03-01T06:06:57;-5.30;99.90
49042;DHT22;34859;51.608;11.462;2023-03-01T06:09:23;-5.40;99.90
49042;DHT22;34859;51.608;11.462;2023-03-01T06:11:51;-5.30;99.90
49042;DHT22;34859;51.608;11.462;2023-03-01T06:14:18;-5.30;99.90
49042;DHT22;34859;51.608;11.462;2023-03-01T06:16:44;-5.40;99.90
49042;DHT22;34859;51.608;11.462;2023-03-01T06:19:11;-5.50;99.90
49042;DHT22;34859;51.608;11.462;2023-03-01T06:21:37;-5.40;99.90
49042;DHT22;34859;51.608;11.462;2023-03-01T06:24:04;-5.40;99.90
49042;DHT22;34859;51.608;11.462;2023-03-01T06:26:32;-5.40;99.90
49042;DHT22;34859;51.608;11.462;2023-03-01T06:29:19;-5.40;99.90
49042;DHT22;34859;51.608;11.462;2023-03-01T06:31:48;-5.30;99.90
49042;DHT22;34859;51.608;11.462;2023-03-01T06:34:14;-5.30;99.90
49042;DHT22;34859;51.608;11.462;2023-03-01T06:36:41;-5.20;99.90
49042;DHT22;34859;51.608;11.462;2023-03-01T06:39:07;-5.20;99.90
49042;DHT22;34859;51.608;11.462;2023-03-01T06:41:34;-5.10;99.90
49042;DHT22;34859;51.608;11.462;2023-03-01T06:44:00;-5.10;99.90
49042;DHT22;34859;51.608;11.462;2023-03-01T06:46:29;-5.00;99.90
49042;DHT22;34859;51.608;11.462;2023-03-01T06:48:56;-5.00;99.90
49042;DHT22;34859;51.608;11.462;2023-03-01T06:51:23;-5.00;99.90
49042;DHT22;34859;51.608;11.462;2023-03-01T06:53:50;-5.00;99.90
49042;DHT22;34859;51.608;11.462;2023-03-01T06:56:17;-4.90;99.90
49042;DHT22;34859;51.608;11.462;2023-03-01T06:58:44;-4.80;99.90
49042;DHT22;34859;51.608;11.462;2023-03-01T07:01:10;-4.80;99.90
49042;DHT22;34859;51.608;11.462;2023-03-01T07:03:37;-4.70;99.90
49042;DHT22;34859;51.608;11.462;2023-03-01T07:06:03;-4.60;99.90
49042;DHT22;34859;51.608;11.462;2023-03-01T07:08:30;-4.60;99.90
49042;DHT22;34859;51.608;11.462;2023-03-01T07:10:57;-4.50;99.90
49042;DHT22;34859;51.608;11.462;2023-03-01T07:13:24;-4.40;99.90
49042;DHT22;34859;51.608;11.462;2023-03-01T07:15:51;-4.40;99.90
49042;DHT22;34859;51.608;11.462;2023-03-01T07:18:17;-4.30;99.90
49042;DHT22;34859;51.608;11.462;2023-03-01T07:20:52;-4.30;99.90
49042;DHT22;34859;51.608;11.462;2023-03-01T07:23:18;-4.20;99.90
49042;DHT22;34859;51.608;11.462;2023-03-01T07:25:51;-4.10;99.90
49042;DHT22;34859;51.608;11.462;2023-03-01T07:28:17;-4.00;99.90
49042;DHT22;34859;51.608;11.462;2023-03-01T07:30:44;-3.90;99.90
49042;DHT22;34859;51.608;11.462;2023-03-01T07:33:10;-3.90;99.90
49042;DHT22;34859;51.608;11.462;2023-03-01T07:35:37;-3.80;99.90
49042;DHT22;34859;51.608;11.462;2023-03-01T07:38:03;-3.70;99.90
49042;DHT22;34859;51.608;11.462;2023-03-01T07:40:30;-3.60;99.90
49042;DHT22;34859;51.608;11.462;2023-03-01T07:42:57;-3.60;99.90
49042;DHT22;34859;51.608;11.462;2023-03-01T07:45:24;-3.50;99.90
49042;DHT22;34859;51.608;11.462;2023-03-01T07:47:54;-3.30;99.90
49042;DHT22;34859;51.608;11.462;2023-03-01T07:50:21;-3.30;99.90
49042;DHT22;34859;51.608;11.462;2023-03-01T07:52:48;-3.20;99.90
49042;DHT22;34859;51.608;11.462;2023-03-01T07:55:15;-3.10;99.90
49042;DHT22;34859;51.608;11.462;2023-03-01T07:57:42;-3.00;99.90
49042;DHT22;34859;51.608;11.462;2023-03-01T08:00:10;-2.90;99.90
49042;DHT22;34859;51.608;11.462;2023-03-01T08:02:40;-2.80;99.90
49042;DHT22;34859;51.608;11.462;2023-03-01T08:05:08;-2.70;99.90
49042;DHT22;34859;51.608;11.462;2023-03-01T08:07:34;-2.60;99.90
49042;DHT22;34859;51.608;11.462;2023-03-01T08:10:21;-2.50;99.90
49042;DHT22;34859;51.608;11.462;2023-03-01T08:12:47;-2.40;99.90
49042;DHT22;34859;51.608;11.462;2023-03-01T08:15:13;-2.30;99.90
49042;DHT22;34859;51.608;11.462;2023-03-01T08:17:40;-2.20;99.90
49042;DHT22;34859;51.608;11.462;2023-03-01T08:20:07;-2.10;99.90
49042;DHT22;34859;51.608;11.462;2023-03-01T08:22:33;-2.00;99.90
49042;DHT22;34859;51.608;11.462;2023-03-01T08:25:00;-1.90;99.90
49042;DHT22;34859;51.608;11.462;2023-03-01T08:27:28;-1.90;99.90
49042;DHT22;34859;51.608;11.462;2023-03-01T08:29:54;-1.70;99.90
49042;DHT22;34859;51.608;11.462;2023-03-01T08:32:21;-1.70;99.90
49042;DHT22;34859;51.608;11.462;2023-03-01T08:34:48;-1.50;99.90
49042;DHT22;34859;51.608;11.462;2023-03-01T08:37:14;-1.30;99.90
49042;DHT22;34859;51.608;11.462;2023-03-01T08:39:40;-1.00;99.90
49042;DHT22;34859;51.608;11.462;2023-03-01T08:42:09;-1.00;99.90
49042;DHT22;34859;51.608;11.462;2023-03-01T08:44:36;-0.90;99.90
49042;DHT22;34859;51.608;11.462;2023-03-01T08:47:03;-0.80;99.90
49042;DHT22;34859;51.608;11.462;2023-03-01T08:49:30;-0.70;99.90
49042;DHT22;34859;51.608;11.462;2023-03-01T08:51:58;-0.60;99.90
49042;DHT22;34859;51.608;11.462;2023-03-01T08:54:24;-0.40;99.90
49042;DHT22;34859;51.608;11.462;2023-03-01T08:56:50;-0.20;99.90
49042;DHT22;34859;51.608;11.462;2023-03-01T08:59:17;-0.20;99.90
49042;DHT22;34859;51.608;11.462;2023-03-01T09:01:45;-0.20;99.90
49042;DHT22;34859;51.608;11.462;2023-03-01T09:04:11;0.00;99.90
49042;DHT22;34859;51.608;11.462;2023-03-01T09:06:38;0.20;99.90
49042;DHT22;34859;51.608;11.462;2023-03-01T09:09:05;0.30;99.90
49042;DHT22;34859;51.608;11.462;2023-03-01T09:11:32;0.60;99.90
49042;DHT22;34859;51.608;11.462;2023-03-01T09:13:58;0.60;99.90
49042;DHT22;34859;51.608;11.462;2023-03-01T09:16:26;0.70;99.90
49042;DHT22;34859;51.608;11.462;2023-03-01T09:18:53;0.80;99.90
49042;DHT22;34859;51.608;11.462;2023-03-01T09:21:20;1.00;99.90
49042;DHT22;34859;51.608;11.462;2023-03-01T09:23:48;1.00;99.90
49042;DHT22;34859;51.608;11.462;2023-03-01T09:26:16;1.00;99.90
49042;DHT22;34859;51.608;11.462;2023-03-01T09:28:42;1.10;99.90
49042;DHT22;34859;51.608;11.462;2023-03-01T09:31:10;1.10;99.90
49042;DHT22;34859;51.608;11.462;2023-03-01T09:33:38;1.20;99.90
49042;DHT22;34859;51.608;11.462;2023-03-01T09:36:06;1.30;99.90
49042;DHT22;34859;51.608;11.462;2023-03-01T09:38:33;1.40;99.90
49042;DHT22;34859;51.608;11.462;2023-03-01T09:41:00;1.50;99.90
49042;DHT22;34859;51.608;11.462;2023-03-01T09:43:39;1.60;99.90
49042;DHT22;34859;51.608;11.462;2023-03-01T09:46:11;1.60;99.90
49042;DHT22;34859;51.608;11.462;2023-03-01T09:49:01;1.70;99.90
49042;DHT22;34859;51.608;11.462;2023-03-01T09:51:39;1.80;99.90
49042;DHT22;34859;51.608;11.462;2023-03-01T09:54:08;2.00;99.90
49042;DHT22;34859;51.608;11.462;2023-03-01T09:56:44;2.10;99.90
49042;DHT22;34859;51.608;11.462;2023-03-01T10:04:45;1.90;99.90
49042;DHT22;34859;51.608;11.462;2023-03-01T10:07:17;1.90;99.90
49042;DHT22;34859;51.608;11.462;2023-03-01T10:09:47;1.90;99.90
49042;DHT22;34859;51.608;11.462;2023-03-01T10:12:15;2.00;99.90
49042;DHT22;34859;51.608;11.462;2023-03-01T10:14:44;2.10;99.90
49042;DHT22;34859;51.608;11.462;2023-03-01T10:20:10;2.10;99.90
49042;DHT22;34859;51.608;11.462;2023-03-01T10:22:40;2.10;99.90
49042;DHT22;34859;51.608;11.462;2023-03-01T10:25:08;2.20;99.90
49042;DHT22;34859;51.608;11.462;2023-03-01T10:27:45;2.20;99.90
49042;DHT22;34859;51.608;11.462;2023-03-01T10:32:42;2.50;99.90
49042;DHT22;34859;51.608;11.462;2023-03-01T10:35:19;2.40;99.90
49042;DHT22;34859;51.608;11.462;2023-03-01T10:41:06;2.40;99.90
49042;DHT22;34859;51.608;11.462;2023-03-01T10:43:55;2.40;99.90
49042;DHT22;34859;51.608;11.462;2023-03-01T10:46:27;2.40;99.90
49042;DHT22;34859;51.608;11.462;2023-03-01T10:49:07;2.40;99.90
49042;DHT22;34859;51.608;11.462;2023-03-01T10:51:34;2.50;99.90
49042;DHT22;34859;51.608;11.462;2023-03-01T10:54:00;2.50;99.90
49042;DHT22;34859;51.608;11.462;2023-03-01T10:56:27;2.70;99.90
49042;DHT22;34859;51.608;11.462;2023-03-01T10:59:01;2.80;99.90
49042;DHT22;34859;51.608;11.462;2023-03-01T11:01:29;2.70;99.90
49042;DHT22;34859;51.608;11.462;2023-03-01T11:06:33;2.80;99.90
49042;DHT22;34859;51.608;11.462;2023-03-01T11:09:13;2.90;99.90
49042;DHT22;34859;51.608;11.462;2023-03-01T11:11:40;2.90;99.90
49042;DHT22;34859;51.608;11.462;2023-03-01T11:14:13;2.90;99.90
49042;DHT22;34859;51.608;11.462;2023-03-01T11:16:41;3.00;99.90
49042;DHT22;34859;51.608;11.462;2023-03-01T11:21:39;3.10;99.90
49042;DHT22;34859;51.608;11.462;2023-03-01T11:24:10;3.20;99.90
49042;DHT22;34859;51.608;11.462;2023-03-01T11:26:38;3.10;99.90
49042;DHT22;34859;51.608;11.462;2023-03-01T11:29:16;3.00;99.90
49042;DHT22;34859;51.608;11.462;2023-03-01T11:31:44;3.20;99.90
49042;DHT22;34859;51.608;11.462;2023-03-01T11:34:12;3.10;99.90
49042;DHT22;34859;51.608;11.462;2023-03-01T11:36:46;3.10;99.90
49042;DHT22;34859;51.608;11.462;2023-03-01T11:39:24;3.20;99.90
49042;DHT22;34859;51.608;11.462;2023-03-01T11:41:59;3.20;99.90
49042;DHT22;34859;51.608;11.462;2023-03-01T11:44:28;3.40;99.90
49042;DHT22;34859;51.608;11.462;2023-03-01T11:52:26;3.40;99.90
49042;DHT22;34859;51.608;11.462;2023-03-01T11:55:12;3.40;99.90
49042;DHT22;34859;51.608;11.462;2023-03-01T12:02:46;3.60;99.90
49042;DHT22;34859;51.608;11.462;2023-03-01T12:05:20;3.70;99.90
49042;DHT22;34859;51.608;11.462;2023-03-01T12:07:57;3.80;99.90
49042;DHT22;34859;51.608;11.462;2023-03-01T12:12:55;3.70;99.90
49042;DHT22;34859;51.608;11.462;2023-03-01T12:20:28;3.90;99.90
49042;DHT22;34859;51.608;11.462;2023-03-01T12:23:21;3.70;99.90
49042;DHT22;34859;51.608;11.462;2023-03-01T12:25:59;3.80;99.90
49042;DHT22;34859;51.608;11.462;2023-03-01T12:28:35;3.70;99.90
49042;DHT22;34859;51.608;11.462;2023-03-01T12:33:45;3.70;99.90
49042;DHT22;34859;51.608;11.462;2023-03-01T12:38:59;3.90;99.90
49042;DHT22;34859;51.608;11.462;2023-03-01T12:44:11;4.00;99.90
49042;DHT22;34859;51.608;11.462;2023-03-01T12:51:59;4.20;99.90
49042;DHT22;34859;51.608;11.462;2023-03-01T12:54:28;4.20;99.90
49042;DHT22;34859;51.608;11.462;2023-03-01T12:56:57;4.20;99.90
49042;DHT22;34859;51.608;11.462;2023-03-01T12:59:31;4.30;99.90
49042;DHT22;34859;51.608;11.462;2023-03-01T13:02:02;4.40;99.90
49042;DHT22;34859;51.608;11.462;2023-03-01T13:04:35;4.30;99.90
49042;DHT22;34859;51.608;11.462;2023-03-01T13:07:09;4.20;99.90
49042;DHT22;34859;51.608;11.462;2023-03-01T13:15:38;4.40;99.90
49042;DHT22;34859;51.608;11.462;2023-03-01T13:20:58;4.20;99.90
49042;DHT22;34859;51.608;11.462;2023-03-01T13:23:26;4.30;99.90
49042;DHT22;34859;51.608;11.462;2023-03-01T13:28:36;4.40;99.90
49042;DHT22;34859;51.608;11.462;2023-03-01T13:31:04;4.40;99.90
49042;DHT22;34859;51.608;11.462;2023-03-01T13:35:57;4.50;99.90
49042;DHT22;34859;51.608;11.462;2023-03-01T13:41:09;4.50;99.90
49042;DHT22;34859;51.608;11.462;2023-03-01T13:43:37;4.40;99.90
49042;DHT22;34859;51.608;11.462;2023-03-01T13:46:10;4.40;99.90
49042;DHT22;34859;51.608;11.462;2023-03-01T13:48:37;4.40;99.90
49042;DHT22;34859;51.608;11.462;2023-03-01T13:51:08;4.50;99.90
49042;DHT22;34859;51.608;11.462;2023-03-01T13:53:39;4.60;99.90
49042;DHT22;34859;51.608;11.462;2023-03-01T13:56:14;4.70;99.90
49042;DHT22;34859;51.608;11.462;2023-03-01T13:59:01;4.60;99.90
49042;DHT22;34859;51.608;11.462;2023-03-01T14:02:11;4.70;99.90
49042;DHT22;34859;51.608;11.462;2023-03-01T14:28:52;4.70;99.90
49042;DHT22;34859;51.608;11.462;2023-03-01T14:31:47;4.80;99.90
49042;DHT22;34859;51.608;11.462;2023-03-01T14:34:42;4.70;99.90
49042;DHT22;34859;51.608;11.462;2023-03-01T14:37:39;4.80;99.90
49042;DHT22;34859;51.608;11.462;2023-03-01T14:47:04;4.90;99.90
49042;DHT22;34859;51.608;11.462;2023-03-01T14:53:42;4.80;99.90
49042;DHT22;34859;51.608;11.462;2023-03-01T15:00:34;4.80;99.90
49042;DHT22;34859;51.608;11.462;2023-03-01T15:07:38;4.80;99.90
49042;DHT22;34859;51.608;11.462;2023-03-01T15:10:54;4.80;99.90
49042;DHT22;34859;51.608;11.462;2023-03-01T15:17:48;4.80;99.90
49042;DHT22;34859;51.608;11.462;2023-03-01T15:28:17;4.90;99.90
49042;DHT22;34859;51.608;11.462;2023-03-01T15:31:37;4.80;99.90
49042;DHT22;34859;51.608;11.462;2023-03-01T15:48:19;4.60;99.90
49042;DHT22;34859;51.608;11.462;2023-03-01T15:51:55;4.60;99.90
49042;DHT22;34859;51.608;11.462;2023-03-01T15:55:27;4.50;99.90
49042;DHT22;34859;51.608;11.462;2023-03-01T15:58:34;4.50;99.90
49042;DHT22;34859;51.608;11.462;2023-03-01T16:05:04;4.30;99.90
49042;DHT22;34859;51.608;11.462;2023-03-01T16:07:55;4.20;99.90
49042;DHT22;34859;51.608;11.462;2023-03-01T16:10:28;4.10;99.90
49042;DHT22;34859;51.608;11.462;2023-03-01T16:16:10;4.00;99.90
49042;DHT22;34859;51.608;11.462;2023-03-01T16:19:03;3.80;99.90
49042;DHT22;34859;51.608;11.462;2023-03-01T16:25:30;3.60;99.90
49042;DHT22;34859;51.608;11.462;2023-03-01T16:27:58;3.50;99.90
49042;DHT22;34859;51.608;11.462;2023-03-01T16:30:46;3.40;99.90
49042;DHT22;34859;51.608;11.462;2023-03-01T16:33:45;3.20;99.90
49042;DHT22;34859;51.608;11.462;2023-03-01T16:36:36;2.80;99.90
49042;DHT22;34859;51.608;11.462;2023-03-01T16:42:52;2.40;99.90
49042;DHT22;34859;51.608;11.462;2023-03-01T16:45:56;2.20;99.90
49042;DHT22;34859;51.608;11.462;2023-03-01T16:48:52;2.10;99.90
49042;DHT22;34859;51.608;11.462;2023-03-01T16:51:47;1.90;99.90
49042;DHT22;34859;51.608;11.462;2023-03-01T16:54:14;1.70;99.90
49042;DHT22;34859;51.608;11.462;2023-03-01T16:56:40;1.60;99.90
49042;DHT22;34859;51.608;11.462;2023-03-01T16:59:10;1.40;99.90
49042;DHT22;34859;51.608;11.462;2023-03-01T17:01:36;1.20;99.90
49042;DHT22;34859;51.608;11.462;2023-03-01T17:04:09;1.10;99.90
49042;DHT22;34859;51.608;11.462;2023-03-01T17:06:36;1.20;99.90
49042;DHT22;34859;51.608;11.462;2023-03-01T17:09:03;1.00;99.90
49042;DHT22;34859;51.608;11.462;2023-03-01T17:11:30;0.90;99.90
49042;DHT22;34859;51.608;11.462;2023-03-01T17:13:56;0.80;99.90
49042;DHT22;34859;51.608;11.462;2023-03-01T17:16:23;0.80;99.90
49042;DHT22;34859;51.608;11.462;2023-03-01T17:18:50;0.60;99.90
49042;DHT22;34859;51.608;11.462;2023-03-01T17:21:16;0.60;99.90
49042;DHT22;34859;51.608;11.462;2023-03-01T17:23:43;0.40;99.90
49042;DHT22;34859;51.608;11.462;2023-03-01T17:26:10;0.50;99.90
49042;DHT22;34859;51.608;11.462;2023-03-01T17:28:38;0.40;99.90
49042;DHT22;34859;51.608;11.462;2023-03-01T17:31:05;0.40;99.90
49042;DHT22;34859;51.608;11.462;2023-03-01T17:33:32;0.40;99.90
49042;DHT22;34859;51.608;11.462;2023-03-01T17:35:59;0.40;99.90
49042;DHT22;34859;51.608;11.462;2023-03-01T17:38:27;0.40;99.90
49042;DHT22;34859;51.608;11.462;2023-03-01T17:40:54;0.40;99.90
49042;DHT22;34859;51.608;11.462;2023-03-01T17:43:21;0.30;99.90
49042;DHT22;34859;51.608;11.462;2023-03-01T17:45:47;0.20;99.90
49042;DHT22;34859;51.608;11.462;2023-03-01T17:48:20;0.30;99.90
49042;DHT22;34859;51.608;11.462;2023-03-01T17:50:46;0.30;99.90
49042;DHT22;34859;51.608;11.462;2023-03-01T17:53:13;0.30;99.90
49042;DHT22;34859;51.608;11.462;2023-03-01T17:55:41;0.30;99.90
49042;DHT22;34859;51.608;11.462;2023-03-01T17:58:08;0.10;99.90
49042;DHT22;34859;51.608;11.462;2023-03-01T18:00:35;0.00;99.90
49042;DHT22;34859;51.608;11.462;2023-03-01T18:03:02;-0.20;99.90
49042;DHT22;34859;51.608;11.462;2023-03-01T18:05:32;-0.30;99.90
49042;DHT22;34859;51.608;11.462;2023-03-01T18:07:58;-0.40;99.90
49042;DHT22;34859;51.608;11.462;2023-03-01T18:10:25;-0.40;99.90
49042;DHT22;34859;51.608;11.462;2023-03-01T18:12:51;-0.60;99.90
49042;DHT22;34859;51.608;11.462;2023-03-01T18:15:18;-0.70;99.90
49042;DHT22;34859;51.608;11.462;2023-03-01T18:17:44;-0.70;99.90
49042;DHT22;34859;51.608;11.462;2023-03-01T18:20:31;-0.80;99.90
49042;DHT22;34859;51.608;11.462;2023-03-01T18:22:58;-0.90;99.90
49042;DHT22;34859;51.608;11.462;2023-03-01T18:25:25;-1.00;99.90
49042;DHT22;34859;51.608;11.462;2023-03-01T18:27:52;-1.00;99.90
49042;DHT22;34859;51.608;11.462;2023-03-01T18:30:18;-1.10;99.90